AAL2457 KIAD-KCLT
Flight info
| Callsign | AAL2457 |
|---|---|
| Flight time | 0h 54m |
| Altitude | 36000 |
| Route | SCRAM6 GLANC AIROW CHSLY6 |
| Aircraft | A321/M-SDE3FGHIRWY/LB1 |
Departure
| Time | 2026-05-06 22:22 |
|---|---|
| Airport | Washington Dulles International Airport (KIAD) |
Arrival
| Time | 2026-05-06 23:16 |
|---|---|
| Airport | Charlotte Douglas International Airport (KCLT) |
| Time | Latitude | Longitude | Altitude | Speed | Heading |
|---|---|---|---|---|---|
| 2026-05-06 21:38 | 38.94815 | -77.45245 | 319 ft | 0 kts | 0° |
| 2026-05-06 22:07 | 38.94801 | -77.45245 | 319 ft | 2 kts | 0° |
| 2026-05-06 22:07 | 38.94786 | -77.45245 | 319 ft | 2 kts | 0° |
| 2026-05-06 22:07 | 38.94771 | -77.45245 | 319 ft | 2 kts | 0° |
| 2026-05-06 22:07 | 38.94756 | -77.45245 | 319 ft | 2 kts | 0° |
| 2026-05-06 22:08 | 38.94741 | -77.45248 | 319 ft | 2 kts | 40° |
| 2026-05-06 22:08 | 38.94733 | -77.45264 | 319 ft | 1 kts | 81° |
| 2026-05-06 22:08 | 38.94733 | -77.45273 | 319 ft | 1 kts | 95° |
| 2026-05-06 22:08 | 38.94733 | -77.45277 | 319 ft | 0 kts | 91° |
| 2026-05-06 22:11 | 38.94733 | -77.45274 | 319 ft | 0 kts | 91° |
| 2026-05-06 22:11 | 38.94733 | -77.45260 | 319 ft | 2 kts | 91° |
| 2026-05-06 22:12 | 38.94732 | -77.45235 | 319 ft | 3 kts | 91° |
| 2026-05-06 22:12 | 38.94732 | -77.45199 | 319 ft | 4 kts | 91° |
| 2026-05-06 22:12 | 38.94731 | -77.45155 | 319 ft | 5 kts | 91° |
| 2026-05-06 22:12 | 38.94730 | -77.45103 | 319 ft | 6 kts | 91° |
| 2026-05-06 22:13 | 38.94730 | -77.45039 | 319 ft | 7 kts | 89° |
| 2026-05-06 22:13 | 38.94731 | -77.44965 | 319 ft | 8 kts | 91° |
| 2026-05-06 22:13 | 38.94730 | -77.44881 | 319 ft | 10 kts | 91° |
| 2026-05-06 22:13 | 38.94728 | -77.44786 | 319 ft | 11 kts | 91° |
| 2026-05-06 22:14 | 38.94727 | -77.44682 | 319 ft | 12 kts | 90° |
| 2026-05-06 22:14 | 38.94727 | -77.44568 | 319 ft | 13 kts | 91° |
| 2026-05-06 22:14 | 38.94726 | -77.44448 | 319 ft | 13 kts | 91° |
| 2026-05-06 22:14 | 38.94725 | -77.44319 | 319 ft | 14 kts | 91° |
| 2026-05-06 22:15 | 38.94723 | -77.44186 | 319 ft | 15 kts | 91° |
| 2026-05-06 22:15 | 38.94722 | -77.44045 | 319 ft | 15 kts | 91° |
| 2026-05-06 22:15 | 38.94788 | -77.43969 | 319 ft | 15 kts | 1° |
| 2026-05-06 22:15 | 38.94897 | -77.43967 | 319 ft | 15 kts | 1° |
| 2026-05-06 22:16 | 38.95008 | -77.43967 | 319 ft | 16 kts | 1° |
| 2026-05-06 22:16 | 38.95120 | -77.43965 | 319 ft | 16 kts | 1° |
| 2026-05-06 22:16 | 38.95237 | -77.43963 | 319 ft | 16 kts | 1° |
| 2026-05-06 22:16 | 38.95352 | -77.43961 | 319 ft | 16 kts | 0° |
| 2026-05-06 22:17 | 38.95466 | -77.43951 | 319 ft | 16 kts | 33° |
| 2026-05-06 22:17 | 38.95486 | -77.43815 | 319 ft | 16 kts | 91° |
| 2026-05-06 22:17 | 38.95486 | -77.43735 | 319 ft | 1 kts | 91° |
| 2026-05-06 22:20 | 38.95486 | -77.43727 | 319 ft | 2 kts | 91° |
| 2026-05-06 22:20 | 38.95486 | -77.43694 | 319 ft | 5 kts | 91° |
| 2026-05-06 22:20 | 38.95485 | -77.43631 | 319 ft | 8 kts | 92° |
| 2026-05-06 22:21 | 38.95430 | -77.43600 | 319 ft | 11 kts | 181° |
| 2026-05-06 22:21 | 38.95238 | -77.43604 | 319 ft | 58 kts | 180° |
| 2026-05-06 22:21 | 38.94610 | -77.43613 | 320 ft | 122 kts | 181° |
| 2026-05-06 22:21 | 38.93568 | -77.43628 | 366 ft | 170 kts | 182° |
| 2026-05-06 22:22 | 38.92377 | -77.43667 | 932 ft | 171 kts | 189° |
| 2026-05-06 22:22 | 38.91242 | -77.44171 | 1592 ft | 170 kts | 212° |
| 2026-05-06 22:22 | 38.90192 | -77.44925 | 2296 ft | 169 kts | 214° |
| 2026-05-06 22:22 | 38.89142 | -77.45648 | 2890 ft | 168 kts | 213° |
| 2026-05-06 22:23 | 38.88054 | -77.46442 | 3347 ft | 177 kts | 214° |
| 2026-05-06 22:23 | 38.86865 | -77.47241 | 3703 ft | 194 kts | 211° |
| 2026-05-06 22:23 | 38.85504 | -77.48059 | 4008 ft | 215 kts | 210° |
| 2026-05-06 22:23 | 38.84041 | -77.48947 | 4443 ft | 231 kts | 210° |
| 2026-05-06 22:24 | 38.82462 | -77.49902 | 4853 ft | 249 kts | 210° |
| 2026-05-06 22:24 | 38.80795 | -77.50916 | 5406 ft | 260 kts | 211° |
| 2026-05-06 22:24 | 38.79064 | -77.51953 | 6225 ft | 261 kts | 210° |
| 2026-05-06 22:24 | 38.77372 | -77.52934 | 7050 ft | 260 kts | 210° |
| 2026-05-06 22:25 | 38.75643 | -77.53902 | 7823 ft | 261 kts | 210° |
| 2026-05-06 22:25 | 38.73938 | -77.54855 | 8579 ft | 261 kts | 210° |
| 2026-05-06 22:25 | 38.72230 | -77.55814 | 9278 ft | 263 kts | 212° |
| 2026-05-06 22:25 | 38.70541 | -77.56860 | 9933 ft | 266 kts | 211° |
| 2026-05-06 22:26 | 38.68803 | -77.57813 | 10493 ft | 273 kts | 210° |
| 2026-05-06 22:26 | 38.66991 | -77.58797 | 10818 ft | 288 kts | 210° |
| 2026-05-06 22:26 | 38.65106 | -77.59851 | 11115 ft | 302 kts | 211° |
| 2026-05-06 22:26 | 38.63121 | -77.60976 | 11594 ft | 310 kts | 211° |
| 2026-05-06 22:27 | 38.61149 | -77.62085 | 12211 ft | 312 kts | 211° |
| 2026-05-06 22:27 | 38.59150 | -77.63197 | 12839 ft | 314 kts | 210° |
| 2026-05-06 22:27 | 38.57116 | -77.64311 | 13393 ft | 318 kts | 211° |
| 2026-05-06 22:27 | 38.55051 | -77.65422 | 13940 ft | 322 kts | 210° |
| 2026-05-06 22:28 | 38.52935 | -77.66543 | 14496 ft | 326 kts | 210° |
| 2026-05-06 22:28 | 38.50751 | -77.67680 | 15087 ft | 329 kts | 210° |
| 2026-05-06 22:28 | 38.48553 | -77.68804 | 15655 ft | 331 kts | 210° |
| 2026-05-06 22:28 | 38.46301 | -77.69946 | 16220 ft | 334 kts | 210° |
| 2026-05-06 22:29 | 38.44058 | -77.71072 | 16749 ft | 338 kts | 210° |
| 2026-05-06 22:29 | 38.41772 | -77.72201 | 17278 ft | 341 kts | 210° |
| 2026-05-06 22:29 | 38.39480 | -77.73321 | 17796 ft | 345 kts | 210° |
| 2026-05-06 22:29 | 38.37163 | -77.74442 | 18313 ft | 347 kts | 210° |
| 2026-05-06 22:30 | 38.34851 | -77.75542 | 18835 ft | 349 kts | 210° |
| 2026-05-06 22:30 | 38.32462 | -77.76675 | 19389 ft | 350 kts | 210° |
| 2026-05-06 22:30 | 38.30099 | -77.77779 | 19907 ft | 352 kts | 210° |
| 2026-05-06 22:30 | 38.27811 | -77.78838 | 20375 ft | 353 kts | 210° |
| 2026-05-06 22:31 | 38.25472 | -77.79913 | 20862 ft | 355 kts | 209° |
| 2026-05-06 22:31 | 38.23004 | -77.80622 | 21281 ft | 373 kts | 197° |
| 2026-05-06 22:31 | 38.20450 | -77.81124 | 21712 ft | 363 kts | 206° |
| 2026-05-06 22:31 | 38.18120 | -77.82243 | 22170 ft | 355 kts | 213° |
| 2026-05-06 22:32 | 38.15855 | -77.83522 | 22601 ft | 356 kts | 215° |
| 2026-05-06 22:32 | 38.13763 | -77.85092 | 22972 ft | 343 kts | 229° |
| 2026-05-06 22:32 | 38.11977 | -77.87266 | 23462 ft | 338 kts | 233° |
| 2026-05-06 22:32 | 38.10301 | -77.89394 | 23874 ft | 340 kts | 233° |
| 2026-05-06 22:33 | 38.08569 | -77.91602 | 24294 ft | 342 kts | 233° |
| 2026-05-06 22:33 | 38.06838 | -77.93799 | 24735 ft | 343 kts | 232° |
| 2026-05-06 22:33 | 38.05117 | -77.95982 | 25125 ft | 345 kts | 233° |
| 2026-05-06 22:33 | 38.03384 | -77.98181 | 25482 ft | 348 kts | 232° |
| 2026-05-06 22:34 | 38.01603 | -78.00438 | 25879 ft | 349 kts | 233° |
| 2026-05-06 22:34 | 37.99853 | -78.02653 | 26220 ft | 352 kts | 232° |
| 2026-05-06 22:34 | 37.98019 | -78.04978 | 26576 ft | 354 kts | 232° |
| 2026-05-06 22:34 | 37.96230 | -78.07241 | 26973 ft | 355 kts | 232° |
| 2026-05-06 22:35 | 37.94401 | -78.09551 | 27348 ft | 356 kts | 232° |
| 2026-05-06 22:35 | 37.92577 | -78.11857 | 27667 ft | 358 kts | 232° |
| 2026-05-06 22:35 | 37.90783 | -78.14120 | 27963 ft | 360 kts | 232° |
| 2026-05-06 22:35 | 37.88959 | -78.16422 | 28280 ft | 362 kts | 232° |
| 2026-05-06 22:36 | 37.87091 | -78.18778 | 28590 ft | 363 kts | 232° |
| 2026-05-06 22:36 | 37.85238 | -78.21107 | 28899 ft | 365 kts | 232° |
| 2026-05-06 22:36 | 37.83376 | -78.23450 | 29205 ft | 366 kts | 232° |
| 2026-05-06 22:36 | 37.81494 | -78.25817 | 29529 ft | 367 kts | 232° |
| 2026-05-06 22:37 | 37.79588 | -78.28203 | 29789 ft | 369 kts | 232° |
| 2026-05-06 22:37 | 37.77720 | -78.30547 | 30010 ft | 372 kts | 233° |
| 2026-05-06 22:37 | 37.75806 | -78.32954 | 30309 ft | 373 kts | 232° |
| 2026-05-06 22:37 | 37.73897 | -78.35345 | 30656 ft | 372 kts | 233° |
| 2026-05-06 22:38 | 37.71979 | -78.37739 | 30915 ft | 373 kts | 233° |
| 2026-05-06 22:38 | 37.70067 | -78.40133 | 31159 ft | 374 kts | 233° |
| 2026-05-06 22:38 | 37.68150 | -78.42532 | 31451 ft | 374 kts | 233° |
| 2026-05-06 22:38 | 37.66239 | -78.44920 | 31782 ft | 373 kts | 234° |
| 2026-05-06 22:39 | 37.64405 | -78.47209 | 32105 ft | 371 kts | 233° |
| 2026-05-06 22:39 | 37.62576 | -78.49492 | 32465 ft | 369 kts | 234° |
| 2026-05-06 22:39 | 37.60762 | -78.51748 | 32811 ft | 366 kts | 235° |
| 2026-05-06 22:39 | 37.58926 | -78.54033 | 33088 ft | 365 kts | 235° |
| 2026-05-06 22:40 | 37.57066 | -78.56351 | 33355 ft | 365 kts | 236° |
| 2026-05-06 22:40 | 37.55196 | -78.58680 | 33653 ft | 363 kts | 235° |
| 2026-05-06 22:40 | 37.53413 | -78.60893 | 33964 ft | 362 kts | 236° |
| 2026-05-06 22:40 | 37.51541 | -78.63223 | 34195 ft | 362 kts | 235° |
| 2026-05-06 22:41 | 37.47834 | -78.67832 | 34663 ft | 363 kts | 236° |
| 2026-05-06 22:41 | 37.45987 | -78.70126 | 34878 ft | 363 kts | 235° |
| 2026-05-06 22:41 | 37.44095 | -78.72467 | 35090 ft | 364 kts | 235° |
| 2026-05-06 22:42 | 37.42213 | -78.74802 | 35312 ft | 365 kts | 236° |
| 2026-05-06 22:42 | 37.40345 | -78.77110 | 35528 ft | 365 kts | 236° |
| 2026-05-06 22:42 | 37.38498 | -78.79398 | 35753 ft | 364 kts | 235° |
| 2026-05-06 22:42 | 37.36587 | -78.81753 | 35898 ft | 365 kts | 236° |
| 2026-05-06 22:43 | 37.34694 | -78.84090 | 35904 ft | 368 kts | 236° |
| 2026-05-06 22:43 | 37.30974 | -78.88683 | 35905 ft | 367 kts | 236° |
| 2026-05-06 22:44 | 37.27331 | -78.93166 | 35905 ft | 367 kts | 236° |
| 2026-05-06 22:44 | 37.23685 | -78.97649 | 35901 ft | 368 kts | 235° |
| 2026-05-06 22:45 | 37.20050 | -79.02117 | 35903 ft | 365 kts | 236° |
| 2026-05-06 22:45 | 37.16414 | -79.06570 | 35905 ft | 366 kts | 236° |
| 2026-05-06 22:46 | 37.12767 | -79.11045 | 35904 ft | 364 kts | 236° |
| 2026-05-06 22:46 | 37.09163 | -79.15437 | 35902 ft | 363 kts | 236° |
| 2026-05-06 22:47 | 37.05505 | -79.19902 | 35908 ft | 366 kts | 236° |
| 2026-05-06 22:47 | 37.01879 | -79.24330 | 35901 ft | 366 kts | 236° |
| 2026-05-06 22:48 | 36.98226 | -79.28783 | 35908 ft | 364 kts | 236° |
| 2026-05-06 22:48 | 36.94615 | -79.33164 | 35906 ft | 365 kts | 236° |
| 2026-05-06 22:49 | 36.90970 | -79.37583 | 35906 ft | 365 kts | 236° |
| 2026-05-06 22:49 | 36.87286 | -79.42056 | 35907 ft | 366 kts | 236° |
| 2026-05-06 22:50 | 36.83592 | -79.46527 | 35911 ft | 368 kts | 235° |
| 2026-05-06 22:50 | 36.79951 | -79.50935 | 35914 ft | 363 kts | 236° |
| 2026-05-06 22:51 | 36.76305 | -79.55328 | 35911 ft | 366 kts | 236° |
| 2026-05-06 22:51 | 36.72659 | -79.59731 | 35704 ft | 367 kts | 236° |
| 2026-05-06 22:51 | 36.70817 | -79.61949 | 35144 ft | 365 kts | 236° |
| 2026-05-06 22:52 | 36.68997 | -79.64140 | 34527 ft | 362 kts | 236° |
| 2026-05-06 22:52 | 36.67199 | -79.66304 | 33889 ft | 361 kts | 234° |
| 2026-05-06 22:52 | 36.65402 | -79.68459 | 33254 ft | 361 kts | 234° |
| 2026-05-06 22:52 | 36.63579 | -79.70658 | 32601 ft | 361 kts | 233° |
| 2026-05-06 22:53 | 36.61795 | -79.72804 | 31961 ft | 361 kts | 233° |
| 2026-05-06 22:53 | 36.59971 | -79.74993 | 31292 ft | 363 kts | 232° |
| 2026-05-06 22:53 | 36.58134 | -79.77200 | 30610 ft | 364 kts | 232° |
| 2026-05-06 22:53 | 36.56321 | -79.79363 | 30102 ft | 361 kts | 232° |
| 2026-05-06 22:54 | 36.54525 | -79.81506 | 29667 ft | 356 kts | 231° |
| 2026-05-06 22:54 | 36.52769 | -79.83602 | 29233 ft | 353 kts | 231° |
| 2026-05-06 22:54 | 36.50926 | -79.85661 | 28762 ft | 352 kts | 228° |
| 2026-05-06 22:54 | 36.49040 | -79.87573 | 28303 ft | 352 kts | 226° |
| 2026-05-06 22:55 | 36.46989 | -79.89459 | 27825 ft | 351 kts | 223° |
| 2026-05-06 22:55 | 36.44861 | -79.91243 | 27375 ft | 349 kts | 222° |
| 2026-05-06 22:55 | 36.42833 | -79.92938 | 26877 ft | 348 kts | 223° |
| 2026-05-06 22:55 | 36.40820 | -79.94624 | 26393 ft | 346 kts | 222° |
| 2026-05-06 22:56 | 36.38832 | -79.96277 | 25957 ft | 344 kts | 222° |
| 2026-05-06 22:56 | 36.36775 | -79.97984 | 25470 ft | 343 kts | 221° |
| 2026-05-06 22:56 | 36.34818 | -79.99607 | 25018 ft | 341 kts | 222° |
| 2026-05-06 22:56 | 36.32822 | -80.01257 | 24559 ft | 340 kts | 222° |
| 2026-05-06 22:57 | 36.30814 | -80.02917 | 24106 ft | 338 kts | 221° |
| 2026-05-06 22:57 | 36.28797 | -80.04578 | 23651 ft | 336 kts | 222° |
| 2026-05-06 22:57 | 36.26786 | -80.06238 | 23208 ft | 334 kts | 221° |
| 2026-05-06 22:57 | 36.24793 | -80.07880 | 22730 ft | 334 kts | 222° |
| 2026-05-06 22:58 | 36.22847 | -80.09480 | 22279 ft | 333 kts | 221° |
| 2026-05-06 22:58 | 36.20923 | -80.11060 | 21844 ft | 332 kts | 222° |
| 2026-05-06 22:58 | 36.19006 | -80.12638 | 21434 ft | 329 kts | 221° |
| 2026-05-06 22:58 | 36.17099 | -80.14205 | 21022 ft | 328 kts | 222° |
| 2026-05-06 22:59 | 36.15179 | -80.15783 | 20586 ft | 326 kts | 222° |
| 2026-05-06 22:59 | 36.13228 | -80.17387 | 20161 ft | 324 kts | 222° |
| 2026-05-06 22:59 | 36.11275 | -80.18989 | 19741 ft | 322 kts | 222° |
| 2026-05-06 22:59 | 36.09332 | -80.20584 | 19309 ft | 321 kts | 223° |
| 2026-05-06 23:00 | 36.07390 | -80.22177 | 18862 ft | 319 kts | 223° |
| 2026-05-06 23:00 | 36.05467 | -80.23755 | 18420 ft | 318 kts | 223° |
| 2026-05-06 23:00 | 36.03551 | -80.25324 | 17993 ft | 317 kts | 223° |
| 2026-05-06 23:00 | 36.01648 | -80.26881 | 17558 ft | 315 kts | 223° |
| 2026-05-06 23:01 | 35.99741 | -80.28442 | 17147 ft | 312 kts | 223° |
| 2026-05-06 23:01 | 35.97897 | -80.29948 | 16951 ft | 305 kts | 223° |
| 2026-05-06 23:01 | 35.96081 | -80.31435 | 16536 ft | 303 kts | 222° |
| 2026-05-06 23:01 | 35.94274 | -80.32913 | 16122 ft | 302 kts | 222° |
| 2026-05-06 23:02 | 35.92455 | -80.34397 | 15697 ft | 301 kts | 222° |
| 2026-05-06 23:02 | 35.90633 | -80.35887 | 15272 ft | 300 kts | 222° |
| 2026-05-06 23:02 | 35.88833 | -80.37353 | 14842 ft | 299 kts | 222° |
| 2026-05-06 23:02 | 35.87060 | -80.38802 | 14430 ft | 297 kts | 221° |
| 2026-05-06 23:03 | 35.85259 | -80.40260 | 14249 ft | 286 kts | 221° |
| 2026-05-06 23:03 | 35.83630 | -80.41587 | 14127 ft | 273 kts | 223° |
| 2026-05-06 23:03 | 35.82105 | -80.42982 | 13862 ft | 266 kts | 226° |
| 2026-05-06 23:03 | 35.80571 | -80.44469 | 13448 ft | 265 kts | 226° |
| 2026-05-06 23:04 | 35.79082 | -80.45913 | 13058 ft | 264 kts | 226° |
| 2026-05-06 23:04 | 35.77562 | -80.47380 | 12667 ft | 263 kts | 226° |
| 2026-05-06 23:04 | 35.76082 | -80.48797 | 12290 ft | 263 kts | 223° |
| 2026-05-06 23:04 | 35.74449 | -80.50002 | 11908 ft | 268 kts | 214° |
| 2026-05-06 23:05 | 35.72697 | -80.50867 | 11629 ft | 273 kts | 207° |
| 2026-05-06 23:05 | 35.70903 | -80.51579 | 11282 ft | 273 kts | 206° |
| 2026-05-06 23:05 | 35.69082 | -80.52280 | 10926 ft | 271 kts | 205° |
| 2026-05-06 23:05 | 35.67283 | -80.52967 | 10571 ft | 270 kts | 205° |
| 2026-05-06 23:06 | 35.65482 | -80.53657 | 10213 ft | 268 kts | 205° |
| 2026-05-06 23:06 | 35.63652 | -80.54359 | 9844 ft | 267 kts | 205° |
| 2026-05-06 23:06 | 35.61921 | -80.55398 | 9446 ft | 263 kts | 226° |
| 2026-05-06 23:06 | 35.60703 | -80.57165 | 9068 ft | 255 kts | 239° |
| 2026-05-06 23:07 | 35.59696 | -80.59051 | 8641 ft | 254 kts | 242° |
| 2026-05-06 23:07 | 35.58731 | -80.60967 | 8223 ft | 253 kts | 242° |
| 2026-05-06 23:07 | 35.57787 | -80.62892 | 7801 ft | 252 kts | 242° |
| 2026-05-06 23:07 | 35.56858 | -80.64809 | 7404 ft | 250 kts | 242° |
| 2026-05-06 23:08 | 35.55944 | -80.66715 | 7014 ft | 249 kts | 241° |
| 2026-05-06 23:08 | 35.55046 | -80.68614 | 6636 ft | 248 kts | 241° |
| 2026-05-06 23:08 | 35.54156 | -80.70528 | 6241 ft | 247 kts | 241° |
| 2026-05-06 23:08 | 35.53283 | -80.72443 | 5884 ft | 245 kts | 241° |
| 2026-05-06 23:09 | 35.52435 | -80.74316 | 5504 ft | 244 kts | 242° |
| 2026-05-06 23:09 | 35.51575 | -80.76228 | 5089 ft | 244 kts | 242° |
| 2026-05-06 23:09 | 35.50722 | -80.78150 | 4676 ft | 244 kts | 242° |
| 2026-05-06 23:09 | 35.49896 | -80.80047 | 4297 ft | 244 kts | 242° |
| 2026-05-06 23:10 | 35.49078 | -80.81930 | 4001 ft | 241 kts | 242° |
| 2026-05-06 23:10 | 35.48253 | -80.83846 | 3982 ft | 244 kts | 242° |
| 2026-05-06 23:10 | 35.47452 | -80.85716 | 3979 ft | 243 kts | 242° |
| 2026-05-06 23:10 | 35.46636 | -80.87620 | 3974 ft | 244 kts | 242° |
| 2026-05-06 23:11 | 35.45817 | -80.89532 | 3974 ft | 244 kts | 242° |
| 2026-05-06 23:11 | 35.45021 | -80.91396 | 3977 ft | 244 kts | 242° |
| 2026-05-06 23:11 | 35.44223 | -80.93250 | 3977 ft | 244 kts | 239° |
| 2026-05-06 23:11 | 35.43060 | -80.94799 | 3959 ft | 239 kts | 212° |
| 2026-05-06 23:12 | 35.41464 | -80.95345 | 3956 ft | 228 kts | 185° |
| 2026-05-06 23:12 | 35.39888 | -80.95227 | 3924 ft | 216 kts | 178° |
| 2026-05-06 23:12 | 35.38361 | -80.95013 | 3714 ft | 212 kts | 179° |
| 2026-05-06 23:12 | 35.36866 | -80.94840 | 3493 ft | 204 kts | 180° |
| 2026-05-06 23:13 | 35.35418 | -80.94706 | 3253 ft | 199 kts | 181° |
| 2026-05-06 23:13 | 35.34041 | -80.94589 | 2956 ft | 186 kts | 181° |
| 2026-05-06 23:13 | 35.32737 | -80.94480 | 2674 ft | 172 kts | 181° |
| 2026-05-06 23:13 | 35.31547 | -80.94379 | 2458 ft | 156 kts | 182° |
| 2026-05-06 23:14 | 35.30447 | -80.94288 | 2243 ft | 149 kts | 182° |
| 2026-05-06 23:14 | 35.29370 | -80.94199 | 2054 ft | 148 kts | 182° |
| 2026-05-06 23:14 | 35.28296 | -80.94109 | 1872 ft | 148 kts | 182° |
| 2026-05-06 23:14 | 35.27210 | -80.94015 | 1678 ft | 148 kts | 181° |
| 2026-05-06 23:15 | 35.26148 | -80.93925 | 1480 ft | 147 kts | 181° |
| 2026-05-06 23:15 | 35.25098 | -80.93835 | 1281 ft | 147 kts | 181° |
| 2026-05-06 23:15 | 35.24057 | -80.93748 | 1084 ft | 147 kts | 180° |
| 2026-05-06 23:15 | 35.23025 | -80.93665 | 900 ft | 148 kts | 179° |
| 2026-05-06 23:16 | 35.22012 | -80.93576 | 755 ft | 140 kts | 178° |
| 2026-05-06 23:16 | 35.21006 | -80.93491 | 756 ft | 164 kts | 179° |
| 2026-05-06 23:16 | 35.20229 | -80.93442 | 755 ft | 35 kts | 167° |
| 2026-05-06 23:16 | 35.20138 | -80.93438 | 754 ft | 4 kts | 203° |
| 2026-05-06 23:17 | 35.20114 | -80.93461 | 755 ft | 4 kts | 237° |
| 2026-05-06 23:17 | 35.20107 | -80.93504 | 755 ft | 5 kts | 277° |
| 2026-05-06 23:17 | 35.20132 | -80.93542 | 754 ft | 6 kts | 337° |
| 2026-05-06 23:17 | 35.20180 | -80.93554 | 755 ft | 7 kts | 356° |
| 2026-05-06 23:18 | 35.20241 | -80.93559 | 754 ft | 9 kts | 356° |
| 2026-05-06 23:18 | 35.20307 | -80.93565 | 755 ft | 10 kts | 356° |
| 2026-05-06 23:18 | 35.20380 | -80.93571 | 754 ft | 10 kts | 356° |
| 2026-05-06 23:18 | 35.20460 | -80.93578 | 755 ft | 12 kts | 356° |
| 2026-05-06 23:19 | 35.20557 | -80.93585 | 755 ft | 15 kts | 356° |
| 2026-05-06 23:19 | 35.20674 | -80.93596 | 755 ft | 17 kts | 356° |
| 2026-05-06 23:19 | 35.20793 | -80.93606 | 755 ft | 17 kts | 356° |
| 2026-05-06 23:19 | 35.20910 | -80.93616 | 755 ft | 17 kts | 356° |
| 2026-05-06 23:20 | 35.21030 | -80.93626 | 755 ft | 17 kts | 356° |
| 2026-05-06 23:20 | 35.21151 | -80.93637 | 755 ft | 17 kts | 356° |
| 2026-05-06 23:20 | 35.21270 | -80.93646 | 755 ft | 17 kts | 356° |
| 2026-05-06 23:20 | 35.21391 | -80.93658 | 755 ft | 17 kts | 355° |
| 2026-05-06 23:21 | 35.21513 | -80.93668 | 755 ft | 17 kts | 356° |
| 2026-05-06 23:21 | 35.21610 | -80.93737 | 755 ft | 16 kts | 310° |
| 2026-05-06 23:21 | 35.21686 | -80.93847 | 755 ft | 17 kts | 313° |
| 2026-05-06 23:21 | 35.21773 | -80.93945 | 755 ft | 17 kts | 318° |
| 2026-05-06 23:22 | 35.21858 | -80.94037 | 755 ft | 14 kts | 318° |
| 2026-05-06 23:22 | 35.21878 | -80.94106 | 755 ft | 7 kts | 253° |
| 2026-05-06 23:22 | 35.21864 | -80.94166 | 755 ft | 3 kts | 252° |
| 2026-05-06 23:22 | 35.21861 | -80.94176 | 755 ft | 0 kts | 252° |
| 2026-05-06 23:23 | 35.21861 | -80.94177 | 755 ft | 0 kts | 252° |